createdAt,value
2022-12-13T00:01:47.733Z,155975.81
2022-12-13T00:04:15.238Z,155953.34
2022-12-13T00:06:42.981Z,155916.31
2022-12-13T00:09:13.976Z,155932.22
2022-12-13T00:11:42.160Z,155937.47
2022-12-13T00:14:09.696Z,155937.47
2022-12-13T00:16:37.997Z,155940.13
2022-12-13T00:19:05.055Z,155952.00
2022-12-13T00:21:33.803Z,155961.28
2022-12-13T00:24:01.915Z,155961.28
2022-12-13T00:26:31.087Z,155969.19
2022-12-13T00:29:05.237Z,155961.28
2022-12-13T00:34:20.449Z,155966.56
2022-12-13T00:36:48.565Z,155975.81
2022-12-13T00:39:16.844Z,155989.03
2022-12-13T00:41:45.242Z,155985.06
2022-12-13T00:44:13.068Z,155995.66
2022-12-13T00:46:41.524Z,155998.28
2022-12-13T00:49:11.008Z,156008.88
2022-12-13T00:51:38.895Z,156018.09
2022-12-13T00:54:06.731Z,156023.41
2022-12-13T00:56:34.489Z,156016.81
2022-12-13T00:59:01.819Z,156022.09
2022-12-13T01:01:32.412Z,156023.41
2022-12-13T01:04:01.666Z,156026.03
2022-12-13T01:06:44.375Z,156024.72
2022-12-13T01:09:31.113Z,156007.50
2022-12-13T01:12:00.716Z,156007.50
2022-12-13T01:14:28.375Z,155970.50
2022-12-13T01:16:56.624Z,155967.91
2022-12-13T01:19:25.684Z,155953.34
2022-12-13T01:22:01.898Z,155953.34
2022-12-13T01:24:30.275Z,155952.00
2022-12-13T01:26:58.531Z,155933.53
2022-12-13T01:29:27.313Z,155932.22
2022-12-13T01:31:55.061Z,155922.94
2022-12-13T01:34:26.678Z,155936.16
2022-12-13T01:36:58.094Z,155938.81
2022-12-13T01:39:27.250Z,155940.13
2022-12-13T01:42:03.585Z,155952.00
2022-12-13T01:44:56.234Z,155954.66
2022-12-13T01:47:42.193Z,155958.59
2022-12-13T01:50:13.122Z,155936.16
2022-12-13T01:52:41.214Z,155963.91
2022-12-13T01:55:09.197Z,155961.28
2022-12-13T01:57:42.140Z,155975.81
2022-12-13T02:00:13.333Z,155981.13
2022-12-13T02:02:41.400Z,156002.25
2022-12-13T02:05:12.141Z,156007.50
2022-12-13T02:07:41.749Z,156011.50
2022-12-13T02:10:09.843Z,156012.81
2022-12-13T02:12:38.848Z,156015.47
2022-12-13T02:15:11.993Z,156006.19
2022-12-13T02:18:10.550Z,156040.56
2022-12-13T02:20:55.583Z,156040.56
2022-12-13T02:24:00.786Z,156030.03
2022-12-13T02:26:55.181Z,156037.94
2022-12-13T02:29:34.947Z,156037.94
2022-12-13T02:32:09.050Z,156037.94
2022-12-13T02:34:40.574Z,156030.03
2022-12-13T02:37:17.844Z,156028.66
2022-12-13T02:39:58.343Z,156039.25
2022-12-13T02:42:35.659Z,156020.75
2022-12-13T02:45:08.255Z,156018.09
2022-12-13T02:47:38.066Z,156023.41
2022-12-13T02:50:08.625Z,156026.03
2022-12-13T02:52:36.173Z,156020.75
2022-12-13T02:55:09.834Z,155992.97
2022-12-13T02:57:39.801Z,156010.19
2022-12-13T03:00:14.348Z,156012.81
2022-12-13T03:03:00.504Z,156020.75
2022-12-13T03:06:06.432Z,156012.81
2022-12-13T03:08:49.159Z,156028.66
2022-12-13T03:11:19.097Z,156027.34
2022-12-13T03:14:02.917Z,156027.34
2022-12-13T03:16:46.488Z,156031.34
2022-12-13T03:19:13.828Z,156031.34
2022-12-13T03:21:48.178Z,156041.88
2022-12-13T03:24:20.977Z,156041.88
2022-12-13T03:26:51.553Z,156027.34
2022-12-13T03:29:24.278Z,156031.34
2022-12-13T03:31:55.507Z,156045.88
2022-12-13T03:34:23.897Z,156047.19
2022-12-13T03:36:52.919Z,156031.34
2022-12-13T03:39:20.494Z,156055.09
2022-12-13T03:41:48.154Z,156061.72
2022-12-13T03:44:15.773Z,156045.88
2022-12-13T03:46:43.515Z,156078.94
2022-12-13T03:49:16.704Z,156076.25
2022-12-13T03:51:45.510Z,156045.88
2022-12-13T03:54:12.932Z,156080.25
2022-12-13T03:56:40.676Z,156078.94
2022-12-13T03:59:08.006Z,156086.88
2022-12-13T04:01:35.613Z,156084.19
2022-12-13T04:04:03.004Z,156071.00
2022-12-13T04:06:33.071Z,156076.25
2022-12-13T04:09:00.748Z,156102.72
2022-12-13T04:11:47.484Z,156078.94
2022-12-13T04:14:22.220Z,156092.16
2022-12-13T04:16:53.713Z,156092.16
2022-12-13T04:19:23.264Z,156097.41
2022-12-13T04:21:54.898Z,156092.16
2022-12-13T04:24:31.620Z,156097.41
2022-12-13T04:27:01.571Z,156106.69
2022-12-13T04:29:34.070Z,156094.78
2022-12-13T04:32:04.838Z,156096.09
2022-12-13T04:34:37.320Z,156104.03
2022-12-13T04:37:06.271Z,156092.16
2022-12-13T04:39:34.371Z,156101.41
2022-12-13T04:42:03.793Z,156089.50
2022-12-13T04:44:35.071Z,156089.50
2022-12-13T04:47:05.131Z,156098.78
2022-12-13T04:49:32.837Z,156108.03
2022-12-13T04:52:01.851Z,156108.03
2022-12-13T04:54:36.650Z,156073.63
2022-12-13T04:57:09.371Z,156074.94
2022-12-13T04:59:37.779Z,156064.41
2022-12-13T05:02:06.670Z,156067.03
2022-12-13T05:04:34.542Z,156056.41
2022-12-13T05:07:02.901Z,156068.34
2022-12-13T05:09:30.549Z,156071.00
2022-12-13T05:12:01.118Z,156047.19
2022-12-13T05:14:31.718Z,156057.78
2022-12-13T05:17:02.333Z,156053.78
2022-12-13T05:19:31.607Z,156059.09
2022-12-13T05:22:01.887Z,156063.03
2022-12-13T05:24:31.703Z,156055.09
2022-12-13T05:27:00.144Z,156064.41
2022-12-13T05:29:28.098Z,156071.00
2022-12-13T05:35:22.017Z,156065.72
2022-12-13T05:37:54.229Z,156060.41
2022-12-13T05:40:26.255Z,156052.47
2022-12-13T05:43:00.719Z,156039.25
2022-12-13T05:45:32.443Z,156041.88
2022-12-13T05:48:00.599Z,156036.63
2022-12-13T05:50:27.954Z,156036.63
2022-12-13T05:52:55.604Z,156014.13
2022-12-13T05:55:22.820Z,156011.50
2022-12-13T05:57:51.227Z,156020.75
2022-12-13T06:00:29.691Z,156016.81
2022-12-13T06:03:00.499Z,155996.97
2022-12-13T06:05:30.385Z,156010.19
2022-12-13T06:07:58.836Z,156008.88
2022-12-13T06:10:35.175Z,155987.72
2022-12-13T06:13:21.556Z,155990.34
2022-12-13T06:15:52.003Z,155979.75
2022-12-13T06:18:30.388Z,155959.97
2022-12-13T06:20:59.024Z,155950.69
2022-12-13T06:23:27.812Z,155970.50
2022-12-13T06:25:55.029Z,155971.84
2022-12-13T06:28:22.971Z,155970.50
2022-12-13T06:30:53.217Z,155977.13
2022-12-13T06:33:23.484Z,155967.91
2022-12-13T06:35:52.908Z,155952.00
2022-12-13T06:38:31.109Z,155950.69
2022-12-13T06:41:18.564Z,155950.69
2022-12-13T06:43:47.835Z,155955.97
2022-12-13T06:46:17.027Z,155941.44
2022-12-13T06:48:45.184Z,155934.84
2022-12-13T06:51:12.554Z,155937.47
2022-12-13T06:53:50.408Z,155922.94
2022-12-13T06:56:17.803Z,155926.91
2022-12-13T06:58:46.185Z,155917.69
2022-12-13T07:01:23.868Z,155909.72
2022-12-13T07:03:55.885Z,155907.09
2022-12-13T07:06:24.479Z,155893.88
2022-12-13T07:08:57.824Z,155900.47
2022-12-13T07:11:27.373Z,155895.19
2022-12-13T07:13:55.833Z,155909.72
2022-12-13T07:16:24.464Z,155905.78
2022-12-13T07:19:00.879Z,155881.97
2022-12-13T07:21:29.785Z,155883.31
2022-12-13T07:23:57.650Z,155880.66
2022-12-13T07:26:25.369Z,155863.50
2022-12-13T07:28:55.543Z,155868.78
2022-12-13T07:31:24.484Z,155880.66
2022-12-13T07:33:52.820Z,155862.19
2022-12-13T07:36:22.400Z,155860.81
2022-12-13T07:38:55.105Z,155862.19
2022-12-13T07:41:24.092Z,155876.72
2022-12-13T07:43:55.116Z,155859.50
2022-12-13T07:46:32.525Z,155856.88
2022-12-13T07:49:03.180Z,155856.88
2022-12-13T07:51:30.504Z,155855.56
2022-12-13T07:53:58.193Z,155835.75
2022-12-13T07:56:25.520Z,155841.03
2022-12-13T07:58:53.307Z,155856.88
2022-12-13T08:01:20.684Z,155834.44
2022-12-13T08:03:49.334Z,155852.91
2022-12-13T08:06:17.274Z,155846.28
2022-12-13T08:08:45.150Z,155846.28
2022-12-13T08:11:15.653Z,155859.50
2022-12-13T08:13:43.685Z,155883.31
2022-12-13T08:16:27.702Z,155892.56
2022-12-13T08:19:03.088Z,155903.09
2022-12-13T08:24:26.216Z,155884.63
2022-12-13T08:26:55.750Z,155874.03
2022-12-13T08:29:34.340Z,155909.72
2022-12-13T08:32:13.342Z,155913.69
2022-12-13T08:34:42.131Z,155928.22
2022-12-13T08:37:09.969Z,155919.00
2022-12-13T08:39:39.012Z,155921.63
2022-12-13T08:42:14.901Z,155933.53
2022-12-13T08:44:53.076Z,155958.59
2022-12-13T08:47:25.099Z,155945.44
2022-12-13T08:49:55.269Z,155942.75
2022-12-13T08:52:23.852Z,155946.75
2022-12-13T08:54:51.962Z,155969.19
2022-12-13T08:57:19.453Z,155981.13
2022-12-13T08:59:47.179Z,155977.13
2022-12-13T09:02:15.269Z,155967.91
2022-12-13T09:04:43.650Z,155970.50
2022-12-13T09:07:10.916Z,156010.19
2022-12-13T09:09:38.874Z,155999.59
2022-12-13T09:12:11.207Z,156007.50
2022-12-13T09:15:01.414Z,156028.66
2022-12-13T09:17:36.475Z,156026.03
2022-12-13T09:20:09.794Z,156008.88
2022-12-13T09:22:39.063Z,155983.75
2022-12-13T09:25:14.928Z,155958.59
2022-12-13T09:27:51.391Z,155945.44
2022-12-13T09:30:19.389Z,155928.22
2022-12-13T09:32:50.031Z,155944.06
2022-12-13T09:35:18.146Z,155963.91
2022-12-13T09:37:46.384Z,155970.50
2022-12-13T09:40:26.372Z,155958.59
2022-12-13T09:43:12.776Z,155961.28
2022-12-13T09:45:45.240Z,155930.84
2022-12-13T09:48:22.888Z,155958.59
2022-12-13T09:50:58.490Z,155954.66
2022-12-13T09:53:40.606Z,155955.97
2022-12-13T09:56:11.761Z,155942.75
2022-12-13T09:58:39.253Z,155922.94
2022-12-13T10:01:08.831Z,155922.94
2022-12-13T10:03:37.406Z,155911.06
2022-12-13T10:06:22.753Z,155864.81
2022-12-13T10:08:57.912Z,155872.72
2022-12-13T10:11:32.341Z,155866.13
2022-12-13T10:14:04.596Z,155880.66
2022-12-13T10:16:36.459Z,155883.31
2022-12-13T10:19:33.537Z,155887.25
2022-12-13T10:22:03.145Z,155875.34
2022-12-13T10:24:47.249Z,155864.81
2022-12-13T10:27:18.120Z,155851.59
2022-12-13T10:30:00.826Z,155842.34
2022-12-13T10:32:29.361Z,155823.84
2022-12-13T10:35:37.443Z,155830.44
2022-12-13T10:38:07.944Z,155825.16
2022-12-13T10:40:37.702Z,155838.38
2022-12-13T10:43:21.743Z,155818.56
2022-12-13T10:46:02.773Z,155822.53
2022-12-13T10:48:51.133Z,155838.38
2022-12-13T10:51:20.367Z,155848.97
2022-12-13T10:53:55.425Z,155841.03
2022-12-13T10:56:24.163Z,155852.91
2022-12-13T10:59:15.027Z,155852.91
2022-12-13T11:01:44.901Z,155825.16
2022-12-13T11:04:34.026Z,155808.00
2022-12-13T11:07:21.621Z,155786.88
2022-12-13T11:09:52.846Z,155780.25
2022-12-13T11:12:23.813Z,155788.19
2022-12-13T11:14:58.429Z,155806.69
2022-12-13T11:17:27.675Z,155796.09
2022-12-13T11:19:57.828Z,155781.56
2022-12-13T11:22:45.475Z,155777.59
2022-12-13T11:25:26.389Z,155789.50
2022-12-13T11:28:37.317Z,155811.94
2022-12-13T11:31:11.468Z,155826.47
2022-12-13T11:33:48.931Z,155856.88
2022-12-13T11:36:16.819Z,155847.66
2022-12-13T11:39:10.879Z,155887.25
2022-12-13T11:41:57.025Z,155919.00
2022-12-13T11:44:54.117Z,155938.81
2022-12-13T11:47:38.650Z,155942.75
2022-12-13T11:50:33.177Z,155945.44
2022-12-13T11:53:21.949Z,155961.28
2022-12-13T11:55:56.997Z,155957.28
2022-12-13T11:59:01.989Z,155946.75
2022-12-13T12:01:51.912Z,155959.97
2022-12-13T12:04:38.091Z,155942.75
2022-12-13T12:07:31.869Z,155967.91
2022-12-13T12:10:25.526Z,155967.91
2022-12-13T12:13:18.857Z,155978.44
2022-12-13T12:16:16.603Z,155941.44
2022-12-13T12:18:44.479Z,155952.00
2022-12-13T12:22:04.877Z,155954.66
2022-12-13T12:24:51.528Z,155950.69
2022-12-13T12:27:37.629Z,155916.31
2022-12-13T12:30:23.554Z,155928.22
2022-12-13T12:33:09.538Z,155899.16
2022-12-13T12:35:52.178Z,155909.72
2022-12-13T12:38:30.066Z,155888.56
2022-12-13T12:41:16.681Z,155834.44
2022-12-13T12:43:45.672Z,155842.34
2022-12-13T12:47:01.589Z,155806.69
2022-12-13T12:49:53.927Z,155788.19
2022-12-13T12:52:47.994Z,155759.13
2022-12-13T12:55:49.157Z,155738.00
2022-12-13T12:58:24.666Z,155723.47
2022-12-13T13:01:11.371Z,155738.00
2022-12-13T13:03:41.725Z,155772.34
2022-12-13T13:06:19.691Z,155800.09
2022-12-13T13:08:56.516Z,155827.81
2022-12-13T13:11:26.275Z,155856.88
2022-12-13T13:14:01.534Z,155862.19
2022-12-13T13:16:40.239Z,155868.78
2022-12-13T13:19:25.497Z,155868.78
2022-12-13T13:22:01.939Z,155856.88
2022-12-13T13:24:31.499Z,155879.34
2022-12-13T13:27:20.071Z,155867.44
2022-12-13T13:29:47.627Z,155858.19
2022-12-13T13:32:29.678Z,155851.59
2022-12-13T13:35:37.914Z,155852.91
2022-12-13T13:38:26.706Z,155844.97
2022-12-13T13:40:54.348Z,155833.06
2022-12-13T13:43:32.454Z,155819.91
2022-12-13T13:46:03.616Z,155822.53
2022-12-13T13:48:53.723Z,155829.16
2022-12-13T13:52:16.732Z,155826.47
2022-12-13T13:55:12.681Z,155823.84
2022-12-13T13:58:21.888Z,155808.00
2022-12-13T14:01:08.949Z,155804.03
2022-12-13T14:04:17.281Z,155790.81
2022-12-13T14:07:04.444Z,155788.19
2022-12-13T14:10:07.951Z,155780.25
2022-12-13T14:13:00.987Z,155778.97
2022-12-13T14:15:53.549Z,155771.03
2022-12-13T14:18:23.797Z,155778.97
2022-12-13T14:21:28.647Z,155782.88
2022-12-13T14:24:03.355Z,155768.38
2022-12-13T14:26:39.735Z,155732.72
2022-12-13T14:29:15.850Z,155751.22
2022-12-13T14:31:45.577Z,155743.31
2022-12-13T14:34:19.291Z,155753.84
2022-12-13T14:36:58.138Z,155753.84
2022-12-13T14:39:26.613Z,155745.91
2022-12-13T14:41:57.132Z,155738.00
2022-12-13T14:44:36.182Z,155741.94
2022-12-13T14:47:06.722Z,155727.41
2022-12-13T14:49:38.935Z,155711.59
2022-12-13T14:52:09.513Z,155710.28
2022-12-13T14:54:44.819Z,155685.16
2022-12-13T14:57:18.636Z,155685.16
2022-12-13T14:59:52.342Z,155677.25
2022-12-13T15:02:32.605Z,155674.63
2022-12-13T15:05:04.016Z,155645.59
2022-12-13T15:07:39.640Z,155625.78
2022-12-13T15:10:48.187Z,155625.78
2022-12-13T15:13:29.411Z,155633.69
2022-12-13T15:16:10.111Z,155624.41
2022-12-13T15:18:41.480Z,155637.63
2022-12-13T15:21:30.628Z,155620.47
2022-12-13T15:23:58.934Z,155599.34
2022-12-13T15:26:32.101Z,155603.28
2022-12-13T15:29:10.375Z,155608.56
2022-12-13T15:31:40.873Z,155598.03
2022-12-13T15:34:31.035Z,155601.97
2022-12-13T15:37:01.972Z,155591.44
2022-12-13T15:39:31.335Z,155563.72
2022-12-13T15:41:59.749Z,155571.63
2022-12-13T15:44:32.931Z,155566.34
2022-12-13T15:47:11.416Z,155549.19
2022-12-13T15:49:49.589Z,155549.19
2022-12-13T15:52:17.133Z,155541.28
2022-12-13T15:55:09.876Z,155533.34
2022-12-13T15:58:04.685Z,155532.03
2022-12-13T16:01:15.756Z,155543.91
2022-12-13T16:03:49.292Z,155522.81
2022-12-13T16:06:24.285Z,155525.41
2022-12-13T16:09:23.926Z,155534.69
2022-12-13T16:12:08.115Z,155522.81
2022-12-13T16:14:50.034Z,155518.81
2022-12-13T16:17:33.230Z,155524.09
2022-12-13T16:20:17.177Z,155534.69
2022-12-13T16:22:51.645Z,155532.03
2022-12-13T16:25:35.649Z,155538.63
2022-12-13T16:28:08.980Z,155546.53
2022-12-13T16:31:15.920Z,155539.94
2022-12-13T16:33:43.456Z,155514.88
2022-12-13T16:36:11.739Z,155518.81
2022-12-13T16:38:39.783Z,155530.72
2022-12-13T16:41:09.379Z,155529.41
2022-12-13T16:43:51.210Z,155522.81
2022-12-13T16:47:17.278Z,155529.41
2022-12-13T16:49:18.631Z,155526.72
2022-12-13T16:51:48.668Z,155501.69
2022-12-13T16:54:17.893Z,155514.88
2022-12-13T16:56:46.000Z,155503.00
2022-12-13T16:59:19.017Z,155504.31
2022-12-13T17:01:47.601Z,155496.41
2022-12-13T17:04:20.616Z,155495.09
2022-12-13T17:06:50.807Z,155481.88
2022-12-13T17:09:19.267Z,155477.91
2022-12-13T17:11:47.113Z,155489.78
2022-12-13T17:14:15.460Z,155466.06
2022-12-13T17:16:43.434Z,155459.47
2022-12-13T17:19:11.994Z,155462.06
2022-12-13T17:21:39.773Z,155458.16
2022-12-13T17:24:08.086Z,155458.16
2022-12-13T17:26:35.663Z,155456.78
2022-12-13T17:29:03.218Z,155438.34
2022-12-13T17:31:35.399Z,155433.06
2022-12-13T17:34:04.457Z,155439.66
2022-12-13T17:36:32.071Z,155433.06
2022-12-13T17:38:59.778Z,155431.75
2022-12-13T17:41:27.500Z,155418.56
2022-12-13T17:43:59.194Z,155419.84
2022-12-13T17:46:27.057Z,155421.16
2022-12-13T17:48:54.548Z,155425.16
2022-12-13T17:51:22.410Z,155425.16
2022-12-13T17:53:49.844Z,155426.47
2022-12-13T17:56:19.379Z,155433.06
2022-12-13T17:58:46.997Z,155442.28
2022-12-13T18:01:15.658Z,155429.06
2022-12-13T18:03:43.776Z,155425.16
2022-12-13T18:06:12.174Z,155407.97
2022-12-13T18:08:42.673Z,155413.25
2022-12-13T18:13:59.481Z,155421.16
2022-12-13T18:16:33.941Z,155423.84
2022-12-13T18:19:06.343Z,155430.44
2022-12-13T18:21:35.703Z,155446.25
2022-12-13T18:24:05.413Z,155435.69
2022-12-13T18:26:34.102Z,155459.47
2022-12-13T18:29:02.443Z,155444.94
2022-12-13T18:31:30.203Z,155440.97
2022-12-13T18:33:57.664Z,155431.75
2022-12-13T18:36:26.777Z,155439.66
2022-12-13T18:38:54.274Z,155423.84
2022-12-13T18:41:24.285Z,155426.47
2022-12-13T18:44:00.052Z,155417.25
2022-12-13T18:46:33.383Z,155426.47
2022-12-13T18:49:01.006Z,155410.66
2022-12-13T18:51:29.127Z,155406.66
2022-12-13T18:53:57.052Z,155406.66
2022-12-13T18:56:26.185Z,155414.56
2022-12-13T18:58:54.463Z,155410.66
2022-12-13T19:01:23.187Z,155385.56
2022-12-13T19:03:51.379Z,155396.13
2022-12-13T19:06:22.875Z,155394.81
2022-12-13T19:08:59.404Z,155375.03
2022-12-13T19:11:29.044Z,155384.25
2022-12-13T19:13:57.471Z,155406.66
2022-12-13T19:16:26.836Z,155394.81
2022-12-13T19:18:54.592Z,155413.25
2022-12-13T19:21:23.083Z,155415.94
2022-12-13T19:23:56.889Z,155404.03
2022-12-13T19:26:28.286Z,155423.84
2022-12-13T19:28:57.997Z,155427.78
2022-12-13T19:31:31.236Z,155418.56
2022-12-13T19:34:01.895Z,155418.56
2022-12-13T19:36:31.322Z,155414.56
2022-12-13T19:38:59.221Z,155414.56
2022-12-13T19:41:27.686Z,155413.25
2022-12-13T19:43:55.682Z,155423.84
2022-12-13T19:46:24.205Z,155430.44
2022-12-13T19:48:51.873Z,155423.84
2022-12-13T19:51:19.864Z,155422.53
2022-12-13T19:53:47.875Z,155425.16
2022-12-13T19:56:18.754Z,155419.84
2022-12-13T19:58:48.505Z,155425.16
2022-12-13T20:01:18.061Z,155426.47
2022-12-13T20:03:46.560Z,155417.25
2022-12-13T20:06:17.142Z,155423.84
2022-12-13T20:08:45.222Z,155427.78
2022-12-13T20:11:19.593Z,155413.25
2022-12-13T20:13:48.750Z,155405.34
2022-12-13T20:16:21.042Z,155389.53
2022-12-13T20:18:53.881Z,155388.22
2022-12-13T20:21:23.505Z,155401.38
2022-12-13T20:23:51.572Z,155389.53
2022-12-13T20:26:27.874Z,155389.53
2022-12-13T20:28:56.366Z,155386.88
2022-12-13T20:31:32.583Z,155373.66
2022-12-13T20:34:05.237Z,155394.81
2022-12-13T20:36:33.187Z,155389.53
2022-12-13T20:39:01.933Z,155406.66
2022-12-13T20:41:32.277Z,155394.81
2022-12-13T20:44:00.719Z,155384.25
2022-12-13T20:46:29.705Z,155376.34
2022-12-13T20:48:58.934Z,155331.47
2022-12-13T20:51:28.483Z,155320.94
2022-12-13T20:53:56.661Z,155284.03
2022-12-13T20:56:26.784Z,155240.47
2022-12-13T20:58:54.759Z,155256.31
2022-12-13T21:01:31.062Z,155233.88
2022-12-13T21:04:00.528Z,155195.66
2022-12-13T21:06:29.894Z,155182.47
2022-12-13T21:09:03.194Z,155169.28
2022-12-13T21:11:35.273Z,155135.00
2022-12-13T21:14:11.176Z,155110.00
2022-12-13T21:16:46.716Z,155083.63
2022-12-13T21:19:22.597Z,155038.84
2022-12-13T21:21:50.898Z,155025.66
2022-12-13T21:24:19.713Z,154995.38
2022-12-13T21:26:47.901Z,154966.41
2022-12-13T21:29:16.445Z,154934.75
2022-12-13T21:31:49.279Z,154929.53
2022-12-13T21:34:18.000Z,154922.94
2022-12-13T21:36:48.456Z,154907.09
2022-12-13T21:39:18.630Z,154888.69
2022-12-13T21:41:46.950Z,154868.94
2022-12-13T21:44:16.374Z,154850.47
2022-12-13T21:49:32.072Z,154818.91
2022-12-13T21:51:59.719Z,154803.06
2022-12-13T21:54:27.173Z,154783.34
2022-12-13T21:57:13.433Z,154766.22
2022-12-13T21:59:40.959Z,154753.03
2022-12-13T22:02:18.445Z,154742.53
2022-12-13T22:04:53.464Z,154733.28
2022-12-13T22:07:32.744Z,154713.56
2022-12-13T22:10:01.399Z,154695.13
2022-12-13T22:12:37.842Z,154685.94
2022-12-13T22:15:13.992Z,154674.06
2022-12-13T22:17:43.198Z,154667.50
2022-12-13T22:20:13.931Z,154662.22
2022-12-13T22:22:44.301Z,154655.63
2022-12-13T22:25:12.642Z,154658.28
2022-12-13T22:27:40.479Z,154642.47
2022-12-13T22:30:08.570Z,154633.28
2022-12-13T22:32:37.030Z,154614.84
2022-12-13T22:35:05.012Z,154605.63
2022-12-13T22:37:33.432Z,154601.66
2022-12-13T22:40:00.912Z,154588.56
2022-12-13T22:42:28.944Z,154581.97
2022-12-13T22:44:56.586Z,154567.50
2022-12-13T22:47:24.420Z,154556.97
2022-12-13T22:49:52.100Z,154549.06
2022-12-13T22:52:20.266Z,154506.97
2022-12-13T22:54:47.576Z,154522.75
2022-12-13T22:57:15.305Z,154513.56
2022-12-13T22:59:42.661Z,154510.91
2022-12-13T23:02:10.670Z,154506.97
2022-12-13T23:04:39.462Z,154495.13
2022-12-13T23:07:07.461Z,154499.09
2022-12-13T23:09:34.901Z,154487.25
2022-12-13T23:12:21.021Z,154478.06
2022-12-13T23:14:48.758Z,154468.81
2022-12-13T23:17:16.513Z,154455.66
2022-12-13T23:19:49.919Z,154436.03
2022-12-13T23:22:22.686Z,154432.06
2022-12-13T23:24:51.231Z,154413.63
2022-12-13T23:27:20.864Z,154412.31
2022-12-13T23:29:48.372Z,154388.66
2022-12-13T23:32:16.351Z,154363.66
2022-12-13T23:34:43.646Z,154342.63
2022-12-13T23:37:11.748Z,154332.16
2022-12-13T23:39:39.266Z,154297.97
2022-12-13T23:42:07.468Z,154261.13
2022-12-13T23:44:35.030Z,154250.63
2022-12-13T23:47:02.711Z,154223.03
2022-12-13T23:49:30.059Z,154204.63
2022-12-13T23:51:57.701Z,154169.16
2022-12-13T23:54:25.110Z,154162.59
2022-12-13T23:56:52.798Z,154154.72
2022-12-13T23:59:20.231Z,154149.44
